Time;durP1;ratioP1;P1;durP2;ratioP2;P2;SDS_P1;SDS_P2;PMS_P1;PMS_P2;Temp;Humidity;BMP_temperature;BMP_pressure;BME280_temperature;BME280_humidity;BME280_pressure;Samples;Min_cycle;Max_cycle;Signal;HPM_P1;HPM_P2
2022/01/14 00:02:23;;;;;;;2.15;2.05;;;0.50;99.90;;;;;;5054515;28;20239;-62
2022/01/14 00:04:50;;;;;;;1.97;1.87;;;0.60;99.90;;;;;;5054006;28;20255;-63
2022/01/14 00:07:18;;;;;;;2.00;1.90;;;0.60;99.90;;;;;;5054718;28;20287;-63
2022/01/14 00:09:47;;;;;;;2.17;2.08;;;0.60;99.90;;;;;;5055407;28;20216;-64
2022/01/14 00:12:18;;;;;;;2.10;2.00;;;0.60;99.90;;;;;;5051397;28;20204;-63
2022/01/14 00:14:57;;;;;;;2.30;2.20;;;0.60;99.90;;;;;;5056332;28;21126;-64
2022/01/14 00:17:24;;;;;;;2.20;2.10;;;0.60;99.90;;;;;;5055511;28;20200;-64
2022/01/14 00:19:51;;;;;;;2.03;1.93;;;0.60;99.90;;;;;;5049941;28;20258;-62
2022/01/14 00:22:18;;;;;;;2.13;2.03;;;0.60;99.90;;;;;;5050118;28;20246;-62
2022/01/14 00:33:08;;;;;;;1.70;1.60;;;0.80;99.90;;;;;;5045628;28;20259;-63
2022/01/14 00:35:37;;;;;;;1.90;1.80;;;0.80;99.90;;;;;;5055098;28;20202;-62
2022/01/14 00:38:04;;;;;;;1.70;1.60;;;0.80;99.90;;;;;;5049748;28;20210;-63
2022/01/14 00:40:33;;;;;;;1.75;1.65;;;0.90;99.90;;;;;;5050210;28;20292;-64
2022/01/14 00:43:00;;;;;;;1.90;1.80;;;1.00;99.90;;;;;;5048775;28;20651;-63
2022/01/14 00:45:28;;;;;;;1.50;1.50;;;1.10;99.90;;;;;;5048550;28;20306;-64
2022/01/14 00:47:55;;;;;;;1.60;1.50;;;1.10;99.90;;;;;;5049847;28;20334;-64
2022/01/14 00:50:21;;;;;;;1.50;1.50;;;1.10;99.90;;;;;;5049171;28;20331;-63
2022/01/14 00:52:50;;;;;;;1.65;1.65;;;1.10;99.90;;;;;;5048670;28;20304;-64
2022/01/14 00:55:26;;;;;;;1.80;1.70;;;1.10;99.90;;;;;;5049396;28;20232;-64
2022/01/14 01:00:39;;;;;;;2.07;1.97;;;1.20;99.90;;;;;;5049577;28;20211;-64
2022/01/14 01:03:05;;;;;;;2.10;2.00;;;1.20;99.90;;;;;;5045247;28;20219;-62
2022/01/14 01:05:32;;;;;;;1.77;1.67;;;1.10;99.90;;;;;;5051572;28;20262;-62
2022/01/14 01:08:04;;;;;;;1.90;1.80;;;1.10;99.90;;;;;;5046501;28;20287;-62
2022/01/14 01:10:32;;;;;;;2.05;1.95;;;1.00;99.90;;;;;;5051553;28;20219;-64
2022/01/14 01:13:08;;;;;;;2.53;2.37;;;0.90;99.90;;;;;;5042039;28;20224;-64
2022/01/14 01:15:35;;;;;;;2.50;2.40;;;0.90;99.90;;;;;;5052570;28;20215;-62
2022/01/14 01:18:01;;;;;;;2.65;2.55;;;0.80;99.90;;;;;;5049499;28;20287;-63
2022/01/14 01:20:28;;;;;;;2.80;2.70;;;0.70;99.90;;;;;;5049161;28;20243;-63
2022/01/14 01:22:55;;;;;;;2.60;2.50;;;0.70;99.90;;;;;;5049727;28;20279;-63
2022/01/14 01:25:26;;;;;;;2.60;2.50;;;0.60;99.90;;;;;;5048069;28;20216;-63
2022/01/14 01:27:54;;;;;;;2.23;2.13;;;0.60;99.90;;;;;;5050527;28;20291;-63
2022/01/14 01:30:50;;;;;;;2.38;2.28;;;0.70;99.90;;;;;;5051480;28;20220;-63
2022/01/14 01:33:17;;;;;;;2.30;2.20;;;0.70;99.90;;;;;;5050818;28;20274;-63
2022/01/14 01:35:44;;;;;;;2.63;2.53;;;0.70;99.90;;;;;;5050318;28;20303;-61
2022/01/14 01:38:16;;;;;;;2.27;2.17;;;0.60;99.90;;;;;;5049187;28;20206;-63
2022/01/14 01:40:44;;;;;;;2.27;2.17;;;0.60;99.90;;;;;;5044981;28;20295;-62
2022/01/14 01:43:12;;;;;;;2.50;2.40;;;0.60;99.90;;;;;;5043117;28;20200;-64
2022/01/14 01:45:41;;;;;;;2.47;2.38;;;0.60;99.90;;;;;;5043872;28;21069;-62
2022/01/14 01:48:08;;;;;;;2.20;2.10;;;0.50;99.90;;;;;;5047584;28;20231;-63
2022/01/14 01:50:37;;;;;;;2.20;2.10;;;0.40;99.90;;;;;;5048581;28;20290;-62
2022/01/14 01:53:05;;;;;;;2.13;2.03;;;0.40;99.90;;;;;;5054862;28;20219;-64
2022/01/14 01:55:32;;;;;;;2.45;2.30;;;0.30;99.90;;;;;;5048909;28;20204;-62
2022/01/14 01:57:59;;;;;;;2.27;2.17;;;0.30;99.90;;;;;;5050187;28;20935;-62
2022/01/14 02:00:28;;;;;;;2.10;2.00;;;0.30;99.90;;;;;;5056556;28;20271;-63
2022/01/14 02:02:57;;;;;;;2.30;2.20;;;0.30;99.90;;;;;;5053287;28;20316;-62
2022/01/14 02:05:25;;;;;;;2.47;2.38;;;0.20;99.90;;;;;;5046016;28;20258;-62
2022/01/14 02:07:53;;;;;;;2.53;2.42;;;0.20;99.90;;;;;;5050806;28;20615;-63
2022/01/14 02:10:22;;;;;;;2.53;2.40;;;0.20;99.90;;;;;;5046412;28;20670;-64
2022/01/14 02:12:52;;;;;;;2.50;2.40;;;0.20;99.90;;;;;;5048384;28;20294;-62
2022/01/14 02:15:42;;;;;;;2.47;2.33;;;0.20;99.90;;;;;;5046547;28;20658;-62
2022/01/14 02:18:37;;;;;;;2.60;2.50;;;0.10;99.90;;;;;;5047810;28;20627;-63
2022/01/14 02:23:55;;;;;;;2.70;2.60;;;0.10;99.90;;;;;;5049432;28;20358;-63
2022/01/14 02:26:23;;;;;;;2.43;2.33;;;0.10;99.90;;;;;;5057217;28;20605;-64
2022/01/14 02:28:51;;;;;;;2.63;2.47;;;0.10;99.90;;;;;;5049577;28;20282;-62
2022/01/14 02:31:19;;;;;;;2.20;2.10;;;0.20;99.90;;;;;;5049116;28;20286;-62
2022/01/14 02:33:46;;;;;;;2.40;2.30;;;0.20;99.90;;;;;;5048720;28;20229;-63
2022/01/14 02:36:15;;;;;;;2.10;2.00;;;0.20;99.90;;;;;;5049485;28;20204;-61
2022/01/14 02:38:42;;;;;;;2.20;2.10;;;0.30;99.90;;;;;;5049331;28;20209;-63
2022/01/14 02:41:09;;;;;;;1.87;1.77;;;0.30;99.90;;;;;;5049475;28;20231;-63
2022/01/14 02:43:37;;;;;;;1.95;1.85;;;0.40;99.90;;;;;;5048801;28;20265;-62
2022/01/14 02:46:05;;;;;;;1.87;1.77;;;0.50;99.90;;;;;;5049140;28;20828;-62
2022/01/14 02:48:33;;;;;;;2.30;2.20;;;0.50;99.90;;;;;;5044911;28;20200;-64
2022/01/14 02:51:02;;;;;;;2.13;2.03;;;0.50;99.90;;;;;;5045712;28;20201;-63
2022/01/14 02:53:43;;;;;;;1.87;1.77;;;0.60;99.90;;;;;;5049351;28;20259;-63
2022/01/14 02:56:12;;;;;;;2.00;1.90;;;0.60;99.90;;;;;;5048397;28;20662;-63
2022/01/14 02:58:41;;;;;;;2.33;2.23;;;0.60;99.90;;;;;;5049198;28;20200;-63
2022/01/14 03:01:10;;;;;;;1.83;1.73;;;0.60;99.90;;;;;;5049708;28;20235;-62
2022/01/14 03:03:40;;;;;;;2.10;2.00;;;0.60;99.90;;;;;;5049526;28;20243;-62
2022/01/14 03:06:07;;;;;;;2.07;1.97;;;0.50;99.90;;;;;;5050356;28;20666;-61
2022/01/14 03:08:36;;;;;;;1.60;1.50;;;0.50;99.90;;;;;;5069309;28;20208;-63
2022/01/14 03:11:08;;;;;;;1.67;1.57;;;0.50;99.90;;;;;;5063817;28;20238;-63
2022/01/14 03:13:36;;;;;;;1.70;1.60;;;0.50;99.90;;;;;;5072288;28;20243;-63
2022/01/14 03:16:03;;;;;;;1.90;1.80;;;0.50;99.90;;;;;;5064716;28;20206;-62
2022/01/14 03:18:37;;;;;;;2.03;1.93;;;0.50;99.90;;;;;;5057473;28;20725;-63
2022/01/14 03:21:11;;;;;;;2.17;2.07;;;0.50;99.90;;;;;;5064817;28;20756;-63
2022/01/14 03:23:46;;;;;;;2.20;2.10;;;0.40;99.90;;;;;;5076461;28;20226;-62
2022/01/14 03:26:15;;;;;;;1.80;1.70;;;0.40;99.90;;;;;;5084682;28;20245;-64
2022/01/14 03:28:42;;;;;;;1.80;1.70;;;0.50;99.90;;;;;;5083665;28;20244;-64
2022/01/14 03:31:09;;;;;;;2.20;2.10;;;0.50;99.90;;;;;;5077209;28;20764;-64
2022/01/14 03:33:36;;;;;;;1.90;1.80;;;0.50;99.90;;;;;;5073729;28;20235;-64
2022/01/14 03:36:05;;;;;;;2.00;1.90;;;0.50;99.90;;;;;;5074192;28;20203;-63
2022/01/14 03:38:32;;;;;;;1.60;1.60;;;0.60;99.90;;;;;;5074317;28;20290;-63
2022/01/14 03:41:01;;;;;;;1.73;1.63;;;0.60;99.90;;;;;;5074063;28;20740;-62
2022/01/14 03:43:28;;;;;;;1.60;1.50;;;0.60;99.90;;;;;;5073825;28;20215;-64
2022/01/14 03:45:55;;;;;;;1.70;1.60;;;0.70;99.90;;;;;;5072633;28;20207;-64
2022/01/14 03:48:22;;;;;;;1.40;1.40;;;0.80;99.90;;;;;;5073669;28;20294;-64
2022/01/14 03:50:49;;;;;;;1.70;1.60;;;0.70;99.90;;;;;;5073858;28;20294;-64
2022/01/14 03:53:16;;;;;;;1.43;1.43;;;0.90;99.90;;;;;;5072945;28;20294;-63
2022/01/14 03:55:45;;;;;;;1.30;1.20;;;1.00;99.90;;;;;;5073481;28;20203;-63
2022/01/14 03:58:13;;;;;;;1.40;1.40;;;1.10;99.90;;;;;;5073284;28;20290;-62
2022/01/14 04:00:40;;;;;;;1.53;1.47;;;1.00;99.90;;;;;;5073521;28;20286;-62
2022/01/14 04:03:07;;;;;;;1.70;1.60;;;1.00;99.90;;;;;;5073314;28;20672;-64
2022/01/14 04:05:35;;;;;;;1.53;1.50;;;0.90;99.90;;;;;;5072784;28;20582;-62
2022/01/14 04:08:02;;;;;;;1.70;1.60;;;0.90;99.90;;;;;;5072632;28;20288;-63
2022/01/14 04:10:29;;;;;;;1.87;1.77;;;0.90;99.90;;;;;;5073003;28;20306;-62
2022/01/14 04:13:00;;;;;;;2.20;2.10;;;0.80;99.90;;;;;;5076274;28;20226;-63
2022/01/14 04:15:41;;;;;;;2.70;2.60;;;0.70;99.90;;;;;;5079367;28;20230;-63
2022/01/14 04:18:09;;;;;;;2.50;2.40;;;0.60;99.90;;;;;;5080500;28;20188;-63
2022/01/14 04:20:37;;;;;;;2.90;2.80;;;0.50;99.90;;;;;;5076955;28;20374;-64
2022/01/14 04:23:05;;;;;;;2.88;2.67;;;0.50;99.90;;;;;;5077961;28;20294;-64
2022/01/14 04:25:33;;;;;;;2.67;2.57;;;0.50;99.90;;;;;;5076407;28;20245;-63
2022/01/14 04:28:00;;;;;;;2.95;2.75;;;0.50;99.90;;;;;;5073664;28;20199;-63
2022/01/14 04:30:28;;;;;;;3.03;2.83;;;0.60;99.90;;;;;;5073341;28;20637;-64
2022/01/14 04:32:56;;;;;;;3.58;3.38;;;0.60;99.90;;;;;;5072854;28;20250;-65
2022/01/14 04:35:23;;;;;;;3.53;3.33;;;0.50;99.90;;;;;;5078365;28;20616;-63
2022/01/14 04:37:50;;;;;;;3.05;2.95;;;0.40;99.90;;;;;;5082467;28;20658;-64
2022/01/14 04:40:17;;;;;;;3.63;3.43;;;0.50;99.90;;;;;;5076113;28;20199;-63
2022/01/14 04:42:44;;;;;;;3.78;3.58;;;0.50;99.90;;;;;;5073599;28;20290;-63
2022/01/14 04:45:15;;;;;;;3.20;3.00;;;0.60;99.90;;;;;;5071472;28;20219;-63
2022/01/14 04:47:45;;;;;;;3.63;3.43;;;0.60;99.90;;;;;;5071687;28;20279;-63
2022/01/14 04:50:14;;;;;;;3.67;3.47;;;0.60;99.90;;;;;;5072730;28;20298;-63
2022/01/14 04:52:43;;;;;;;4.18;3.97;;;0.50;99.90;;;;;;5063377;28;20286;-62
2022/01/14 04:55:11;;;;;;;4.00;3.80;;;0.40;99.90;;;;;;5063022;28;20310;-63
2022/01/14 04:57:39;;;;;;;4.13;3.93;;;0.30;99.90;;;;;;5072073;28;20242;-63
2022/01/14 05:00:08;;;;;;;4.13;3.90;;;0.20;99.90;;;;;;5072111;28;20290;-62
2022/01/14 05:02:36;;;;;;;4.30;4.10;;;0.20;99.90;;;;;;5072430;28;20214;-63
2022/01/14 05:05:05;;;;;;;4.07;3.87;;;0.10;99.90;;;;;;5071064;28;20219;-64
2022/01/14 05:07:32;;;;;;;4.07;3.88;;;0.10;99.90;;;;;;5071247;28;20302;-63
2022/01/14 05:10:16;;;;;;;3.83;3.63;;;0.20;99.90;;;;;;5071226;28;20632;-63
2022/01/14 05:12:43;;;;;;;3.97;3.77;;;0.30;99.90;;;;;;5071457;28;20270;-64
2022/01/14 05:15:11;;;;;;;3.50;3.30;;;0.30;99.90;;;;;;5071220;28;20232;-64
2022/01/14 05:17:38;;;;;;;3.60;3.40;;;0.40;99.90;;;;;;5071511;28;20294;-63
2022/01/14 05:20:08;;;;;;;3.83;3.60;;;0.40;99.90;;;;;;5071686;28;20207;-63
2022/01/14 05:22:35;;;;;;;3.53;3.33;;;0.40;99.90;;;;;;5070915;28;20261;-64
2022/01/14 05:25:02;;;;;;;3.40;3.20;;;0.50;99.90;;;;;;5070964;28;20302;-63
2022/01/14 05:27:29;;;;;;;3.20;3.00;;;0.50;99.90;;;;;;5070555;28;20291;-62
2022/01/14 05:29:56;;;;;;;2.70;2.60;;;0.60;99.90;;;;;;5071840;28;20238;-64
2022/01/14 05:32:23;;;;;;;2.28;2.17;;;0.50;99.90;;;;;;5071841;28;20241;-62
2022/01/14 05:34:50;;;;;;;2.00;1.90;;;0.40;99.90;;;;;;5071181;28;20693;-62
2022/01/14 05:37:19;;;;;;;1.80;1.70;;;0.40;99.90;;;;;;5071366;28;20222;-62
2022/01/14 05:39:45;;;;;;;1.90;1.80;;;0.40;99.90;;;;;;5071542;28;20205;-64
2022/01/14 05:42:12;;;;;;;1.63;1.60;;;0.30;99.90;;;;;;5071382;28;20291;-62
2022/01/14 05:44:39;;;;;;;1.90;1.80;;;0.30;99.90;;;;;;5071181;28;20223;-62
2022/01/14 05:47:06;;;;;;;1.90;1.80;;;0.20;99.90;;;;;;5070108;28;20286;-62
2022/01/14 05:49:34;;;;;;;2.23;2.13;;;0.20;99.90;;;;;;5071207;28;20581;-63
2022/01/14 05:52:01;;;;;;;1.80;1.70;;;0.20;99.90;;;;;;5071095;28;20191;-63
2022/01/14 05:54:29;;;;;;;1.53;1.53;;;0.20;99.90;;;;;;5071349;28;20231;-62
2022/01/14 05:56:57;;;;;;;1.90;1.80;;;0.20;99.90;;;;;;5071371;28;20338;-64
2022/01/14 05:59:24;;;;;;;1.40;1.40;;;0.20;99.90;;;;;;5071210;28;20302;-64
2022/01/14 06:01:50;;;;;;;1.60;1.50;;;0.10;99.90;;;;;;5071193;28;20725;-62
2022/01/14 06:04:17;;;;;;;1.70;1.60;;;0.10;99.90;;;;;;5071053;28;20700;-64
2022/01/14 06:06:44;;;;;;;1.70;1.60;;;0.20;99.90;;;;;;5070863;28;20290;-63
2022/01/14 06:09:11;;;;;;;1.70;1.60;;;0.20;99.90;;;;;;5070507;28;20226;-63
2022/01/14 06:11:39;;;;;;;1.50;1.50;;;0.20;99.90;;;;;;5068194;28;20279;-63
2022/01/14 06:14:06;;;;;;;1.80;1.70;;;0.20;99.90;;;;;;5063154;28;20461;-63
2022/01/14 06:16:33;;;;;;;2.00;1.90;;;0.20;99.90;;;;;;5071261;28;20294;-62
2022/01/14 06:19:00;;;;;;;2.00;1.90;;;0.10;99.90;;;;;;5071188;28;20680;-63
2022/01/14 06:21:27;;;;;;;2.10;2.00;;;0.10;99.90;;;;;;5070966;28;20816;-63
2022/01/14 06:23:54;;;;;;;2.20;2.10;;;0.10;99.90;;;;;;5071292;28;20219;-64
2022/01/14 06:26:21;;;;;;;1.60;1.60;;;0.00;99.90;;;;;;5070405;28;20230;-64
2022/01/14 06:28:49;;;;;;;2.33;2.23;;;0.00;99.90;;;;;;5070877;28;20790;-62
2022/01/14 06:31:16;;;;;;;2.33;2.22;;;0.00;99.90;;;;;;5074407;28;20251;-63
2022/01/14 06:33:43;;;;;;;1.97;1.87;;;-0.10;99.90;;;;;;5071548;28;20219;-62
2022/01/14 06:36:10;;;;;;;1.93;1.83;;;0.00;99.90;;;;;;5071060;28;20227;-62
2022/01/14 06:38:37;;;;;;;2.05;1.95;;;0.00;99.90;;;;;;5071073;28;20256;-63
2022/01/14 06:41:04;;;;;;;1.90;1.80;;;0.00;99.90;;;;;;5070692;28;20290;-62
2022/01/14 06:43:31;;;;;;;2.00;1.90;;;0.10;99.90;;;;;;5070740;28;20234;-64
2022/01/14 06:45:59;;;;;;;1.90;1.80;;;0.10;99.90;;;;;;5042031;28;20282;-62
2022/01/14 06:48:26;;;;;;;1.50;1.40;;;0.20;99.90;;;;;;5044502;28;20299;-62
2022/01/14 06:50:54;;;;;;;1.70;1.60;;;0.30;99.90;;;;;;5049377;28;20208;-63
2022/01/14 06:53:22;;;;;;;1.42;1.42;;;0.40;99.90;;;;;;5049374;28;20203;-63
2022/01/14 06:55:49;;;;;;;1.70;1.60;;;0.50;99.90;;;;;;5061132;28;20271;-63
2022/01/14 06:58:15;;;;;;;1.40;1.40;;;0.60;99.90;;;;;;5056061;28;20295;-62
2022/01/14 07:00:42;;;;;;;1.25;1.25;;;0.70;99.90;;;;;;5058591;28;20208;-62
2022/01/14 07:03:11;;;;;;;1.73;1.63;;;0.70;99.90;;;;;;5074760;28;20295;-63
2022/01/14 07:05:37;;;;;;;1.87;1.77;;;0.70;99.90;;;;;;5057418;28;20291;-62
2022/01/14 07:08:05;;;;;;;2.60;2.50;;;0.60;99.90;;;;;;5054251;28;20299;-63
2022/01/14 07:10:35;;;;;;;2.97;2.88;;;0.50;99.90;;;;;;5054349;28;20220;-64
2022/01/14 07:13:03;;;;;;;3.67;3.40;;;0.20;99.90;;;;;;5054352;28;20211;-64
2022/01/14 07:15:30;;;;;;;4.88;4.57;;;0.00;99.90;;;;;;5054398;28;20232;-64
2022/01/14 07:17:57;;;;;;;4.75;4.45;;;-0.20;99.90;;;;;;5062993;28;20303;-64
2022/01/14 07:20:25;;;;;;;4.82;4.53;;;-0.40;99.90;;;;;;5056629;28;20235;-62
2022/01/14 07:22:52;;;;;;;4.67;4.37;;;-0.50;99.90;;;;;;5054737;28;20204;-63
2022/01/14 07:25:20;;;;;;;4.60;4.30;;;-0.70;99.90;;;;;;5054221;28;20246;-64
2022/01/14 07:27:47;;;;;;;4.38;4.07;;;-0.70;99.90;;;;;;5053076;28;20219;-65
2022/01/14 07:30:15;;;;;;;3.90;3.70;;;-0.60;99.90;;;;;;5054132;28;20289;-63
2022/01/14 07:32:42;;;;;;;4.13;3.92;;;-0.50;99.90;;;;;;5054159;28;20291;-64
2022/01/14 07:35:10;;;;;;;4.43;4.13;;;-0.40;99.90;;;;;;5054240;28;20615;-63
2022/01/14 07:37:39;;;;;;;3.90;3.70;;;-0.30;99.90;;;;;;5054600;28;20241;-64
2022/01/14 07:40:07;;;;;;;3.92;3.63;;;-0.30;99.90;;;;;;5053349;28;20291;-65
2022/01/14 07:42:34;;;;;;;4.13;3.92;;;-0.20;99.90;;;;;;5053465;28;20218;-64
2022/01/14 07:45:01;;;;;;;4.03;3.73;;;-0.10;99.90;;;;;;5055933;28;20287;-65
2022/01/14 07:47:28;;;;;;;3.90;3.70;;;-0.10;99.90;;;;;;5053231;28;20302;-64
2022/01/14 07:49:55;;;;;;;4.15;3.95;;;0.00;99.90;;;;;;5053063;28;20235;-63
2022/01/14 07:52:22;;;;;;;4.30;4.00;;;0.00;99.90;;;;;;5053604;28;20291;-63
2022/01/14 07:54:50;;;;;;;3.75;3.55;;;0.10;99.90;;;;;;5054410;28;20224;-63
2022/01/14 07:57:18;;;;;;;4.05;3.85;;;0.20;99.90;;;;;;5053716;28;20197;-64
2022/01/14 07:59:45;;;;;;;3.17;2.97;;;0.20;99.90;;;;;;5057552;28;20275;-64
2022/01/14 08:02:13;;;;;;;3.40;3.20;;;0.30;99.90;;;;;;5071722;28;20215;-64
2022/01/14 08:04:41;;;;;;;3.10;2.90;;;0.30;99.90;;;;;;5079682;28;20245;-62
2022/01/14 08:07:12;;;;;;;2.30;2.20;;;0.40;99.90;;;;;;5054884;28;20216;-62
2022/01/14 08:09:40;;;;;;;2.70;2.60;;;0.40;99.90;;;;;;5053707;28;20224;-63
2022/01/14 08:12:10;;;;;;;2.58;2.47;;;0.50;99.90;;;;;;5057593;28;20203;-63
2022/01/14 08:14:37;;;;;;;2.28;2.17;;;0.50;99.90;;;;;;5064461;28;20695;-62
2022/01/14 08:17:05;;;;;;;2.37;2.27;;;0.60;99.90;;;;;;5054760;28;20204;-63
2022/01/14 08:19:33;;;;;;;2.00;1.90;;;0.70;99.90;;;;;;5053697;28;20262;-63
2022/01/14 08:22:01;;;;;;;2.15;2.00;;;0.90;99.90;;;;;;5051968;28;20249;-64
2022/01/14 08:24:29;;;;;;;2.15;2.05;;;0.90;99.90;;;;;;5051027;28;20594;-64
2022/01/14 08:26:56;;;;;;;2.30;2.20;;;1.00;99.90;;;;;;5054118;28;20230;-63
2022/01/14 08:29:27;;;;;;;3.20;3.00;;;1.10;99.90;;;;;;5049909;28;20208;-63
2022/01/14 08:31:54;;;;;;;3.67;3.47;;;1.10;99.90;;;;;;5054374;28;20201;-63
2022/01/14 08:34:21;;;;;;;3.75;3.45;;;1.20;99.90;;;;;;5053367;28;20224;-64
2022/01/14 08:36:48;;;;;;;3.20;3.00;;;1.20;99.90;;;;;;5054134;28;20713;-63
2022/01/14 08:39:16;;;;;;;3.13;2.92;;;1.40;99.90;;;;;;5053990;28;20200;-64
2022/01/14 08:41:42;;;;;;;2.80;2.70;;;1.40;99.90;;;;;;5053764;28;20658;-63
2022/01/14 08:44:09;;;;;;;2.83;2.63;;;1.50;99.90;;;;;;5051575;28;20224;-63
2022/01/14 08:46:38;;;;;;;2.35;2.25;;;1.60;99.90;;;;;;5048314;28;20288;-64
2022/01/14 08:49:04;;;;;;;2.50;2.40;;;1.60;99.90;;;;;;5049712;28;20657;-62
2022/01/14 08:51:31;;;;;;;2.40;2.20;;;1.70;99.90;;;;;;5050367;28;20292;-64
2022/01/14 08:54:02;;;;;;;2.20;2.10;;;1.80;99.90;;;;;;5053975;28;20215;-63
2022/01/14 08:56:30;;;;;;;2.22;2.13;;;1.80;99.90;;;;;;5051032;28;20260;-63
2022/01/14 08:58:57;;;;;;;2.57;2.47;;;1.90;99.90;;;;;;5054053;28;20211;-64
2022/01/14 09:01:24;;;;;;;2.10;2.00;;;2.00;99.90;;;;;;5054963;28;20300;-64
2022/01/14 09:03:52;;;;;;;2.70;2.50;;;2.00;99.90;;;;;;5051681;28;20316;-63
2022/01/14 09:06:19;;;;;;;2.63;2.47;;;2.20;99.90;;;;;;5062234;28;20280;-64
2022/01/14 09:08:46;;;;;;;2.20;2.10;;;2.30;99.90;;;;;;5066279;28;20243;-64
2022/01/14 09:11:13;;;;;;;2.00;1.90;;;2.40;99.90;;;;;;5066860;28;20204;-64
2022/01/14 09:13:39;;;;;;;1.93;1.83;;;2.50;99.90;;;;;;5053463;28;20318;-64
2022/01/14 09:16:06;;;;;;;1.83;1.73;;;2.50;99.90;;;;;;5048064;28;20311;-64
2022/01/14 09:18:33;;;;;;;1.80;1.70;;;2.60;99.90;;;;;;5054799;28;20204;-64
2022/01/14 09:21:01;;;;;;;1.70;1.60;;;2.70;99.90;;;;;;5052298;28;20291;-64
2022/01/14 09:23:30;;;;;;;1.43;1.43;;;2.90;99.90;;;;;;5049202;28;20208;-62
2022/01/14 09:25:57;;;;;;;1.70;1.60;;;3.10;99.90;;;;;;5046408;28;20203;-62
2022/01/14 09:28:24;;;;;;;1.70;1.60;;;3.20;99.90;;;;;;5044763;28;20240;-64
2022/01/14 09:30:51;;;;;;;1.60;1.52;;;3.30;99.90;;;;;;5044120;28;20279;-62
2022/01/14 09:33:18;;;;;;;1.75;1.65;;;3.40;99.90;;;;;;5047920;28;20214;-63
2022/01/14 09:35:46;;;;;;;1.50;1.50;;;3.50;99.90;;;;;;5054266;28;20227;-63
2022/01/14 09:38:15;;;;;;;1.80;1.70;;;3.70;99.90;;;;;;5062903;28;20688;-62
2022/01/14 09:40:44;;;;;;;1.80;1.70;;;3.70;99.90;;;;;;5060911;28;20188;-63
2022/01/14 09:43:14;;;;;;;2.30;2.20;;;3.70;99.90;;;;;;5059588;28;20236;-63
2022/01/14 09:45:41;;;;;;;2.50;2.40;;;3.60;99.90;;;;;;5063645;28;20729;-62
2022/01/14 09:48:08;;;;;;;2.40;2.30;;;3.50;99.90;;;;;;5044290;28;20283;-63
2022/01/14 09:50:35;;;;;;;2.83;2.73;;;3.60;99.90;;;;;;5043106;28;20291;-62
2022/01/14 09:53:02;;;;;;;3.00;2.80;;;3.50;99.90;;;;;;5045397;28;20241;-64
2022/01/14 09:55:31;;;;;;;3.00;2.90;;;3.30;99.90;;;;;;5044051;28;20233;-65
2022/01/14 09:58:00;;;;;;;3.90;3.60;;;3.40;99.90;;;;;;5044049;28;20685;-63
2022/01/14 10:00:27;;;;;;;3.10;2.90;;;3.40;99.90;;;;;;5046881;28;20214;-64
2022/01/14 10:02:54;;;;;;;3.47;3.27;;;3.40;99.90;;;;;;5044303;28;20212;-63
2022/01/14 10:05:35;;;;;;;3.60;3.40;;;3.40;99.90;;;;;;5045298;28;20303;-63
2022/01/14 10:08:13;;;;;;;3.97;3.63;;;3.50;99.90;;;;;;5040007;28;20737;-64
2022/01/14 10:10:45;;;;;;;4.00;3.80;;;3.40;99.90;;;;;;5037810;28;20302;-63
2022/01/14 10:13:14;;;;;;;3.60;3.40;;;3.30;99.90;;;;;;5042739;28;20199;-64
2022/01/14 10:15:46;;;;;;;3.67;3.47;;;3.30;99.90;;;;;;5042415;28;20220;-63
2022/01/14 10:18:15;;;;;;;4.23;3.97;;;3.00;99.90;;;;;;5044167;28;20224;-64
2022/01/14 10:20:43;;;;;;;3.70;3.50;;;3.10;99.90;;;;;;5037377;28;20655;-63
2022/01/14 10:23:12;;;;;;;3.92;3.72;;;3.20;99.90;;;;;;5041548;28;20203;-63
2022/01/14 10:25:41;;;;;;;4.10;3.90;;;3.30;99.90;;;;;;5036246;28;20197;-63
2022/01/14 10:28:19;;;;;;;4.50;4.20;;;3.30;99.90;;;;;;5045787;28;20211;-63
2022/01/14 10:30:48;;;;;;;3.70;3.50;;;3.40;99.90;;;;;;5048915;28;20218;-63
2022/01/14 10:33:20;;;;;;;3.83;3.63;;;3.40;99.90;;;;;;5051579;28;20291;-63
2022/01/14 10:35:48;;;;;;;4.27;4.03;;;3.50;99.90;;;;;;5050664;28;20216;-65
2022/01/14 10:38:17;;;;;;;4.37;4.07;;;3.50;99.90;;;;;;5053498;28;20680;-63
2022/01/14 10:40:47;;;;;;;3.63;3.37;;;3.40;99.90;;;;;;5047717;28;20219;-63
2022/01/14 10:43:16;;;;;;;4.20;4.00;;;3.30;99.90;;;;;;5049558;28;20287;-62
2022/01/14 10:45:44;;;;;;;4.10;3.90;;;3.30;99.90;;;;;;5053333;28;20207;-64
2022/01/14 10:48:12;;;;;;;4.40;4.20;;;3.20;99.90;;;;;;5054350;28;20204;-62
2022/01/14 10:50:41;;;;;;;4.40;4.20;;;3.30;99.90;;;;;;5054397;28;20204;-63
2022/01/14 10:53:11;;;;;;;4.77;4.47;;;3.10;99.90;;;;;;5045020;28;20711;-62
2022/01/14 10:55:41;;;;;;;4.30;4.07;;;3.10;99.90;;;;;;5049612;28;20240;-64
2022/01/14 10:58:13;;;;;;;4.60;4.30;;;3.00;99.90;;;;;;5047352;28;20296;-62
2022/01/14 11:00:42;;;;;;;4.90;4.60;;;3.00;99.90;;;;;;5050590;28;20204;-64
2022/01/14 11:03:09;;;;;;;4.67;4.33;;;3.00;99.90;;;;;;5050877;28;20216;-63
2022/01/14 11:05:36;;;;;;;5.17;4.87;;;3.00;99.90;;;;;;5051371;28;20196;-64
2022/01/14 11:08:04;;;;;;;4.27;4.07;;;3.00;99.90;;;;;;5050921;28;20204;-63
2022/01/14 11:10:34;;;;;;;4.40;4.20;;;2.90;99.90;;;;;;5046885;28;20306;-64
2022/01/14 11:13:02;;;;;;;4.43;4.23;;;2.80;99.90;;;;;;5050464;28;20199;-63
2022/01/14 11:15:32;;;;;;;4.10;3.90;;;2.80;99.90;;;;;;5051092;28;20306;-62
2022/01/14 11:18:02;;;;;;;4.43;4.23;;;2.70;99.90;;;;;;5062462;28;20214;-63
2022/01/14 11:20:31;;;;;;;3.90;3.70;;;2.80;99.90;;;;;;5051427;28;20265;-63
2022/01/14 11:23:16;;;;;;;4.40;4.13;;;2.80;99.90;;;;;;5051892;28;20242;-64
2022/01/14 11:25:46;;;;;;;4.20;4.00;;;2.80;99.90;;;;;;5047795;28;20192;-63
2022/01/14 11:28:18;;;;;;;4.20;4.00;;;2.80;99.90;;;;;;5049868;28;20288;-63
2022/01/14 11:30:47;;;;;;;4.13;3.83;;;2.80;99.90;;;;;;5053479;28;20286;-63
2022/01/14 11:33:15;;;;;;;4.67;4.37;;;2.90;99.90;;;;;;5048980;28;20287;-63
2022/01/14 11:35:55;;;;;;;4.80;4.50;;;3.00;99.90;;;;;;5051546;28;20200;-64
2022/01/14 11:38:41;;;;;;;4.90;4.60;;;3.10;99.90;;;;;;5047853;28;20206;-63
2022/01/14 11:41:09;;;;;;;3.80;3.60;;;3.00;99.90;;;;;;5052796;28;20649;-62
2022/01/14 11:43:42;;;;;;;4.43;4.20;;;3.10;99.90;;;;;;5053634;28;20243;-62
2022/01/14 11:46:13;;;;;;;4.77;4.47;;;3.00;99.90;;;;;;5051811;28;20738;-63
2022/01/14 11:48:45;;;;;;;3.90;3.70;;;3.00;99.90;;;;;;5049048;28;20291;-62
2022/01/14 11:51:14;;;;;;;4.67;4.37;;;3.00;99.90;;;;;;5050384;28;20196;-63
2022/01/14 11:53:50;;;;;;;4.03;3.83;;;3.00;99.90;;;;;;5054056;28;20227;-63
2022/01/14 11:56:57;;;;;;;4.17;3.97;;;3.10;99.90;;;;;;5048287;28;20882;-64
2022/01/14 11:59:44;;;;;;;4.27;4.07;;;3.20;99.90;;;;;;5062141;28;20653;-64
2022/01/14 12:02:39;;;;;;;4.20;4.00;;;3.20;99.90;;;;;;5043569;28;20298;-63
2022/01/14 12:05:23;;;;;;;4.80;4.50;;;3.20;99.90;;;;;;5046732;28;20221;-62
2022/01/14 12:08:14;;;;;;;4.70;4.50;;;3.10;99.90;;;;;;5054435;28;20591;-63
2022/01/14 12:10:43;;;;;;;4.83;4.53;;;2.90;99.90;;;;;;5055100;28;20220;-63
2022/01/14 12:13:26;;;;;;;4.60;4.30;;;3.00;99.90;;;;;;5049450;28;20265;-63
2022/01/14 12:15:59;;;;;;;4.63;4.40;;;3.10;99.90;;;;;;5062001;28;20689;-64
2022/01/14 12:19:13;;;;;;;4.57;4.37;;;3.10;99.90;;;;;;5060747;28;20204;-63
2022/01/14 12:22:03;;;;;;;4.60;4.30;;;3.10;99.90;;;;;;5055178;28;20202;-63
2022/01/14 12:24:36;;;;;;;4.82;4.53;;;3.10;99.90;;;;;;5050568;28;20244;-63
2022/01/14 12:27:36;;;;;;;4.90;4.60;;;3.20;99.90;;;;;;5053106;28;20211;-63
2022/01/14 12:30:09;;;;;;;5.20;4.90;;;3.30;99.90;;;;;;5051634;28;20299;-63
2022/01/14 12:32:39;;;;;;;5.40;5.10;;;3.40;99.90;;;;;;5052363;28;20307;-63
2022/01/14 12:35:09;;;;;;;5.40;5.10;;;3.40;99.90;;;;;;5049580;28;20705;-63
2022/01/14 12:37:40;;;;;;;5.30;5.00;;;3.40;99.90;;;;;;5052135;28;20295;-64
2022/01/14 12:40:11;;;;;;;5.43;5.13;;;3.40;99.90;;;;;;5052353;28;20196;-63
2022/01/14 12:42:38;;;;;;;5.67;5.37;;;3.40;99.90;;;;;;5053477;28;20214;-62
2022/01/14 12:45:10;;;;;;;4.87;4.67;;;3.30;99.90;;;;;;5052009;28;20224;-62
2022/01/14 12:47:40;;;;;;;5.40;5.10;;;3.30;99.90;;;;;;5056197;28;20284;-63
2022/01/14 12:50:10;;;;;;;5.47;5.17;;;3.30;99.90;;;;;;5055337;28;20207;-62
2022/01/14 12:52:51;;;;;;;5.20;4.90;;;3.30;99.90;;;;;;5056432;28;20207;-63
2022/01/14 12:55:19;;;;;;;5.20;4.90;;;3.20;99.90;;;;;;5055278;28;20263;-64
2022/01/14 12:57:46;;;;;;;5.23;4.93;;;3.20;99.90;;;;;;5052061;28;20231;-63
2022/01/14 13:00:16;;;;;;;5.40;5.00;;;3.20;99.90;;;;;;5051746;28;20210;-63
2022/01/14 13:02:43;;;;;;;4.77;4.47;;;3.20;99.90;;;;;;5049251;28;20239;-64
2022/01/14 13:05:14;;;;;;;4.80;4.50;;;3.30;99.90;;;;;;5044520;28;20235;-63
2022/01/14 13:07:41;;;;;;;5.22;4.93;;;3.20;99.90;;;;;;5050957;28;20200;-62
2022/01/14 13:10:11;;;;;;;5.10;4.73;;;3.20;99.90;;;;;;5053744;28;20844;-63
2022/01/14 13:12:40;;;;;;;5.37;5.07;;;3.20;99.90;;;;;;5050702;28;20254;-62
2022/01/14 13:15:10;;;;;;;4.80;4.50;;;3.00;99.90;;;;;;5042732;28;20224;-63
2022/01/14 13:17:42;;;;;;;5.10;4.80;;;3.00;99.90;;;;;;5054206;28;20260;-63
2022/01/14 13:20:11;;;;;;;5.40;5.10;;;2.90;99.90;;;;;;5057002;28;20744;-62
2022/01/14 13:22:43;;;;;;;5.35;5.05;;;2.80;99.90;;;;;;5064554;28;20771;-63
2022/01/14 13:25:13;;;;;;;5.57;5.27;;;2.80;99.90;;;;;;5072910;28;20823;-63